sensor_id;sensor_type;location;lat;lon;timestamp;P1;durP1;ratioP1;P2;durP2;ratioP2
9106;SDS011;4589;48.690;8.952;2022-10-18T00:02:09;9.80;;;6.23;;
9106;SDS011;4589;48.690;8.952;2022-10-18T00:04:35;10.80;;;7.20;;
9106;SDS011;4589;48.690;8.952;2022-10-18T00:07:01;14.87;;;6.63;;
9106;SDS011;4589;48.690;8.952;2022-10-18T00:09:27;7.90;;;6.53;;
9106;SDS011;4589;48.690;8.952;2022-10-18T00:11:53;7.87;;;6.50;;
9106;SDS011;4589;48.690;8.952;2022-10-18T00:14:19;14.37;;;7.23;;
9106;SDS011;4589;48.690;8.952;2022-10-18T00:16:45;13.00;;;7.37;;
9106;SDS011;4589;48.690;8.952;2022-10-18T00:19:11;13.03;;;8.30;;
9106;SDS011;4589;48.690;8.952;2022-10-18T00:21:37;11.57;;;7.43;;
9106;SDS011;4589;48.690;8.952;2022-10-18T00:24:03;12.70;;;7.87;;
9106;SDS011;4589;48.690;8.952;2022-10-18T00:26:29;10.60;;;7.50;;
9106;SDS011;4589;48.690;8.952;2022-10-18T00:28:59;18.50;;;8.00;;
9106;SDS011;4589;48.690;8.952;2022-10-18T00:33:53;12.33;;;8.23;;
9106;SDS011;4589;48.690;8.952;2022-10-18T00:36:23;14.73;;;8.00;;
9106;SDS011;4589;48.690;8.952;2022-10-18T00:38:49;15.63;;;7.50;;
9106;SDS011;4589;48.690;8.952;2022-10-18T00:41:17;11.27;;;7.67;;
9106;SDS011;4589;48.690;8.952;2022-10-18T00:43:57;12.63;;;7.43;;
9106;SDS011;4589;48.690;8.952;2022-10-18T00:46:24;10.07;;;7.27;;
9106;SDS011;4589;48.690;8.952;2022-10-18T00:48:50;13.63;;;7.70;;
9106;SDS011;4589;48.690;8.952;2022-10-18T00:51:17;11.70;;;7.60;;
9106;SDS011;4589;48.690;8.952;2022-10-18T00:53:43;11.13;;;7.30;;
9106;SDS011;4589;48.690;8.952;2022-10-18T00:56:10;10.03;;;7.83;;
9106;SDS011;4589;48.690;8.952;2022-10-18T00:58:37;9.47;;;6.60;;
9106;SDS011;4589;48.690;8.952;2022-10-18T01:01:03;12.23;;;6.43;;
9106;SDS011;4589;48.690;8.952;2022-10-18T01:03:29;10.50;;;7.00;;
9106;SDS011;4589;48.690;8.952;2022-10-18T01:05:55;9.53;;;7.30;;
9106;SDS011;4589;48.690;8.952;2022-10-18T01:18:55;6.43;;;5.83;;
9106;SDS011;4589;48.690;8.952;2022-10-18T01:21:36;13.27;;;6.63;;
9106;SDS011;4589;48.690;8.952;2022-10-18T01:29:36;9.73;;;6.10;;
9106;SDS011;4589;48.690;8.952;2022-10-18T01:32:07;8.90;;;5.77;;
9106;SDS011;4589;48.690;8.952;2022-10-18T01:34:38;7.90;;;5.10;;
9106;SDS011;4589;48.690;8.952;2022-10-18T01:37:07;5.20;;;4.70;;
9106;SDS011;4589;48.690;8.952;2022-10-18T01:39:35;10.50;;;4.70;;
9106;SDS011;4589;48.690;8.952;2022-10-18T01:42:04;5.40;;;4.90;;
9106;SDS011;4589;48.690;8.952;2022-10-18T01:44:30;6.10;;;5.03;;
9106;SDS011;4589;48.690;8.952;2022-10-18T01:46:58;8.93;;;4.80;;
9106;SDS011;4589;48.690;8.952;2022-10-18T01:49:24;5.83;;;5.03;;
9106;SDS011;4589;48.690;8.952;2022-10-18T01:51:51;8.20;;;4.97;;
9106;SDS011;4589;48.690;8.952;2022-10-18T01:54:18;7.13;;;5.50;;
9106;SDS011;4589;48.690;8.952;2022-10-18T02:02:23;8.83;;;5.00;;
9106;SDS011;4589;48.690;8.952;2022-10-18T02:07:38;7.50;;;4.23;;
9106;SDS011;4589;48.690;8.952;2022-10-18T02:10:11;5.80;;;4.53;;
9106;SDS011;4589;48.690;8.952;2022-10-18T02:12:45;6.30;;;5.27;;
9106;SDS011;4589;48.690;8.952;2022-10-18T02:15:13;6.50;;;5.23;;
9106;SDS011;4589;48.690;8.952;2022-10-18T02:17:41;8.50;;;4.80;;
9106;SDS011;4589;48.690;8.952;2022-10-18T02:20:08;8.90;;;4.73;;
9106;SDS011;4589;48.690;8.952;2022-10-18T02:22:34;9.80;;;5.00;;
9106;SDS011;4589;48.690;8.952;2022-10-18T02:25:02;6.47;;;4.90;;
9106;SDS011;4589;48.690;8.952;2022-10-18T02:27:29;7.43;;;4.37;;
9106;SDS011;4589;48.690;8.952;2022-10-18T02:29:55;4.80;;;3.80;;
9106;SDS011;4589;48.690;8.952;2022-10-18T02:35:03;7.00;;;4.50;;
9106;SDS011;4589;48.690;8.952;2022-10-18T02:37:35;7.20;;;4.60;;
9106;SDS011;4589;48.690;8.952;2022-10-18T02:40:03;4.93;;;4.10;;
9106;SDS011;4589;48.690;8.952;2022-10-18T02:42:33;6.73;;;4.50;;
9106;SDS011;4589;48.690;8.952;2022-10-18T02:44:59;10.70;;;4.83;;
9106;SDS011;4589;48.690;8.952;2022-10-18T02:47:25;11.40;;;5.70;;
9106;SDS011;4589;48.690;8.952;2022-10-18T02:49:51;5.07;;;4.53;;
9106;SDS011;4589;48.690;8.952;2022-10-18T02:52:17;5.60;;;4.70;;
9106;SDS011;4589;48.690;8.952;2022-10-18T02:54:43;12.13;;;4.00;;
9106;SDS011;4589;48.690;8.952;2022-10-18T02:57:09;6.10;;;4.37;;
9106;SDS011;4589;48.690;8.952;2022-10-18T02:59:35;7.40;;;4.43;;
9106;SDS011;4589;48.690;8.952;2022-10-18T03:02:01;11.27;;;5.10;;
9106;SDS011;4589;48.690;8.952;2022-10-18T03:04:27;5.60;;;4.20;;
9106;SDS011;4589;48.690;8.952;2022-10-18T03:06:53;7.40;;;5.73;;
9106;SDS011;4589;48.690;8.952;2022-10-18T03:09:18;8.20;;;4.40;;
9106;SDS011;4589;48.690;8.952;2022-10-18T03:11:44;9.23;;;4.77;;
9106;SDS011;4589;48.690;8.952;2022-10-18T03:14:10;7.07;;;4.87;;
9106;SDS011;4589;48.690;8.952;2022-10-18T03:16:36;6.87;;;4.50;;
9106;SDS011;4589;48.690;8.952;2022-10-18T03:19:02;4.40;;;4.00;;
9106;SDS011;4589;48.690;8.952;2022-10-18T03:21:28;6.70;;;4.73;;
9106;SDS011;4589;48.690;8.952;2022-10-18T03:23:54;4.97;;;4.50;;
9106;SDS011;4589;48.690;8.952;2022-10-18T03:26:22;7.43;;;4.63;;
9106;SDS011;4589;48.690;8.952;2022-10-18T03:28:48;5.80;;;4.37;;
9106;SDS011;4589;48.690;8.952;2022-10-18T03:31:14;5.57;;;5.07;;
9106;SDS011;4589;48.690;8.952;2022-10-18T03:33:40;5.10;;;4.60;;
9106;SDS011;4589;48.690;8.952;2022-10-18T03:36:06;5.07;;;4.57;;
9106;SDS011;4589;48.690;8.952;2022-10-18T03:38:32;9.20;;;5.70;;
9106;SDS011;4589;48.690;8.952;2022-10-18T03:40:58;8.80;;;5.57;;
9106;SDS011;4589;48.690;8.952;2022-10-18T03:43:24;7.27;;;5.73;;
9106;SDS011;4589;48.690;8.952;2022-10-18T03:45:50;5.73;;;4.70;;
9106;SDS011;4589;48.690;8.952;2022-10-18T03:48:16;7.67;;;4.90;;
9106;SDS011;4589;48.690;8.952;2022-10-18T03:50:42;8.83;;;4.70;;
9106;SDS011;4589;48.690;8.952;2022-10-18T03:53:08;4.60;;;4.20;;
9106;SDS011;4589;48.690;8.952;2022-10-18T03:55:35;10.77;;;5.03;;
9106;SDS011;4589;48.690;8.952;2022-10-18T03:58:01;8.80;;;4.57;;
9106;SDS011;4589;48.690;8.952;2022-10-18T04:00:27;6.83;;;4.37;;
9106;SDS011;4589;48.690;8.952;2022-10-18T04:02:53;6.07;;;4.57;;
9106;SDS011;4589;48.690;8.952;2022-10-18T04:05:19;5.47;;;4.67;;
9106;SDS011;4589;48.690;8.952;2022-10-18T04:07:45;7.10;;;4.30;;
9106;SDS011;4589;48.690;8.952;2022-10-18T04:10:11;6.20;;;4.57;;
9106;SDS011;4589;48.690;8.952;2022-10-18T04:12:37;4.53;;;3.80;;
9106;SDS011;4589;48.690;8.952;2022-10-18T04:15:03;5.43;;;4.93;;
9106;SDS011;4589;48.690;8.952;2022-10-18T04:17:29;8.07;;;4.40;;
9106;SDS011;4589;48.690;8.952;2022-10-18T04:19:55;6.27;;;4.67;;
9106;SDS011;4589;48.690;8.952;2022-10-18T04:22:21;6.17;;;4.67;;
9106;SDS011;4589;48.690;8.952;2022-10-18T04:24:46;4.90;;;4.43;;
9106;SDS011;4589;48.690;8.952;2022-10-18T04:27:13;8.10;;;4.63;;
9106;SDS011;4589;48.690;8.952;2022-10-18T04:29:38;5.20;;;4.70;;
9106;SDS011;4589;48.690;8.952;2022-10-18T04:32:04;6.70;;;4.53;;
9106;SDS011;4589;48.690;8.952;2022-10-18T04:34:30;5.23;;;4.53;;
9106;SDS011;4589;48.690;8.952;2022-10-18T04:36:56;8.50;;;4.87;;
9106;SDS011;4589;48.690;8.952;2022-10-18T04:39:22;6.60;;;5.17;;
9106;SDS011;4589;48.690;8.952;2022-10-18T04:41:47;6.70;;;5.03;;
9106;SDS011;4589;48.690;8.952;2022-10-18T04:44:13;5.23;;;4.13;;
9106;SDS011;4589;48.690;8.952;2022-10-18T04:46:39;6.10;;;4.90;;
9106;SDS011;4589;48.690;8.952;2022-10-18T04:49:05;5.70;;;4.77;;
9106;SDS011;4589;48.690;8.952;2022-10-18T04:51:31;7.83;;;5.50;;
9106;SDS011;4589;48.690;8.952;2022-10-18T04:53:57;7.70;;;5.63;;
9106;SDS011;4589;48.690;8.952;2022-10-18T04:56:23;9.17;;;4.93;;
9106;SDS011;4589;48.690;8.952;2022-10-18T04:58:48;8.07;;;4.37;;
9106;SDS011;4589;48.690;8.952;2022-10-18T05:01:14;5.47;;;4.60;;
9106;SDS011;4589;48.690;8.952;2022-10-18T05:03:41;7.13;;;4.30;;
9106;SDS011;4589;48.690;8.952;2022-10-18T05:06:07;6.20;;;5.20;;
9106;SDS011;4589;48.690;8.952;2022-10-18T05:08:33;6.10;;;5.00;;
9106;SDS011;4589;48.690;8.952;2022-10-18T05:11:00;6.73;;;5.20;;
9106;SDS011;4589;48.690;8.952;2022-10-18T05:13:26;5.90;;;5.07;;
9106;SDS011;4589;48.690;8.952;2022-10-18T05:15:52;6.40;;;4.33;;
9106;SDS011;4589;48.690;8.952;2022-10-18T05:18:17;5.60;;;4.50;;
9106;SDS011;4589;48.690;8.952;2022-10-18T05:20:44;6.23;;;4.43;;
9106;SDS011;4589;48.690;8.952;2022-10-18T05:23:10;5.00;;;4.50;;
9106;SDS011;4589;48.690;8.952;2022-10-18T05:25:40;12.57;;;5.60;;
9106;SDS011;4589;48.690;8.952;2022-10-18T05:28:06;9.50;;;5.53;;
9106;SDS011;4589;48.690;8.952;2022-10-18T05:30:32;14.30;;;6.57;;
9106;SDS011;4589;48.690;8.952;2022-10-18T05:33:01;7.30;;;4.77;;
9106;SDS011;4589;48.690;8.952;2022-10-18T05:35:26;6.60;;;4.83;;
9106;SDS011;4589;48.690;8.952;2022-10-18T05:37:52;7.00;;;5.13;;
9106;SDS011;4589;48.690;8.952;2022-10-18T05:40:18;5.83;;;5.23;;
9106;SDS011;4589;48.690;8.952;2022-10-18T05:42:44;5.57;;;5.07;;
9106;SDS011;4589;48.690;8.952;2022-10-18T05:45:10;10.03;;;5.70;;
9106;SDS011;4589;48.690;8.952;2022-10-18T05:47:36;7.40;;;5.13;;
9106;SDS011;4589;48.690;8.952;2022-10-18T05:50:02;7.97;;;5.53;;
9106;SDS011;4589;48.690;8.952;2022-10-18T05:52:28;6.97;;;5.50;;
9106;SDS011;4589;48.690;8.952;2022-10-18T05:54:54;7.97;;;5.97;;
9106;SDS011;4589;48.690;8.952;2022-10-18T05:57:19;10.10;;;5.50;;
9106;SDS011;4589;48.690;8.952;2022-10-18T05:59:45;9.20;;;7.30;;
9106;SDS011;4589;48.690;8.952;2022-10-18T06:02:11;12.07;;;9.43;;
9106;SDS011;4589;48.690;8.952;2022-10-18T06:04:37;14.17;;;10.00;;
9106;SDS011;4589;48.690;8.952;2022-10-18T06:07:07;7.10;;;6.40;;
9106;SDS011;4589;48.690;8.952;2022-10-18T06:09:36;8.37;;;6.60;;
9106;SDS011;4589;48.690;8.952;2022-10-18T06:12:03;10.77;;;4.90;;
9106;SDS011;4589;48.690;8.952;2022-10-18T06:14:29;14.90;;;4.97;;
9106;SDS011;4589;48.690;8.952;2022-10-18T06:16:55;7.47;;;5.30;;
9106;SDS011;4589;48.690;8.952;2022-10-18T06:19:21;8.60;;;5.80;;
9106;SDS011;4589;48.690;8.952;2022-10-18T06:21:48;7.73;;;6.03;;
9106;SDS011;4589;48.690;8.952;2022-10-18T06:24:14;8.00;;;5.50;;
9106;SDS011;4589;48.690;8.952;2022-10-18T06:26:40;8.43;;;5.13;;
9106;SDS011;4589;48.690;8.952;2022-10-18T06:29:06;7.57;;;5.43;;
9106;SDS011;4589;48.690;8.952;2022-10-18T06:31:32;5.37;;;4.83;;
9106;SDS011;4589;48.690;8.952;2022-10-18T06:33:57;8.00;;;5.00;;
9106;SDS011;4589;48.690;8.952;2022-10-18T06:36:24;5.60;;;4.70;;
9106;SDS011;4589;48.690;8.952;2022-10-18T06:38:50;19.67;;;4.77;;
9106;SDS011;4589;48.690;8.952;2022-10-18T06:41:16;7.50;;;4.47;;
9106;SDS011;4589;48.690;8.952;2022-10-18T06:43:46;5.10;;;4.13;;
9106;SDS011;4589;48.690;8.952;2022-10-18T06:46:12;5.83;;;4.87;;
9106;SDS011;4589;48.690;8.952;2022-10-18T06:48:38;10.93;;;5.30;;
9106;SDS011;4589;48.690;8.952;2022-10-18T06:51:04;5.10;;;4.30;;
9106;SDS011;4589;48.690;8.952;2022-10-18T06:53:31;6.10;;;4.70;;
9106;SDS011;4589;48.690;8.952;2022-10-18T06:56:00;9.07;;;4.73;;
9106;SDS011;4589;48.690;8.952;2022-10-18T06:58:27;9.67;;;4.67;;
9106;SDS011;4589;48.690;8.952;2022-10-18T07:00:53;4.50;;;3.93;;
9106;SDS011;4589;48.690;8.952;2022-10-18T07:03:19;9.33;;;4.70;;
9106;SDS011;4589;48.690;8.952;2022-10-18T07:05:46;4.63;;;4.23;;
9106;SDS011;4589;48.690;8.952;2022-10-18T07:08:12;4.60;;;3.53;;
9106;SDS011;4589;48.690;8.952;2022-10-18T07:10:38;6.17;;;3.87;;
9106;SDS011;4589;48.690;8.952;2022-10-18T07:13:04;5.80;;;4.03;;
9106;SDS011;4589;48.690;8.952;2022-10-18T07:15:30;4.63;;;4.23;;
9106;SDS011;4589;48.690;8.952;2022-10-18T07:17:56;7.63;;;4.10;;
9106;SDS011;4589;48.690;8.952;2022-10-18T07:20:22;8.97;;;4.03;;
9106;SDS011;4589;48.690;8.952;2022-10-18T07:22:48;8.73;;;5.07;;
9106;SDS011;4589;48.690;8.952;2022-10-18T07:25:14;7.33;;;4.43;;
9106;SDS011;4589;48.690;8.952;2022-10-18T07:27:41;8.10;;;4.57;;
9106;SDS011;4589;48.690;8.952;2022-10-18T07:30:08;5.10;;;4.60;;
9106;SDS011;4589;48.690;8.952;2022-10-18T07:32:34;6.60;;;4.43;;
9106;SDS011;4589;48.690;8.952;2022-10-18T07:35:00;5.40;;;3.80;;
9106;SDS011;4589;48.690;8.952;2022-10-18T07:37:27;7.10;;;4.47;;
9106;SDS011;4589;48.690;8.952;2022-10-18T07:39:53;6.93;;;4.37;;
9106;SDS011;4589;48.690;8.952;2022-10-18T07:42:19;4.70;;;4.23;;
9106;SDS011;4589;48.690;8.952;2022-10-18T07:44:45;4.80;;;3.70;;
9106;SDS011;4589;48.690;8.952;2022-10-18T07:47:10;5.80;;;4.60;;
9106;SDS011;4589;48.690;8.952;2022-10-18T07:49:36;10.93;;;4.73;;
9106;SDS011;4589;48.690;8.952;2022-10-18T07:52:02;4.90;;;3.90;;
9106;SDS011;4589;48.690;8.952;2022-10-18T07:54:28;7.77;;;4.27;;
9106;SDS011;4589;48.690;8.952;2022-10-18T07:56:54;6.60;;;3.60;;
9106;SDS011;4589;48.690;8.952;2022-10-18T07:59:20;8.27;;;4.30;;
9106;SDS011;4589;48.690;8.952;2022-10-18T08:01:46;5.33;;;3.90;;
9106;SDS011;4589;48.690;8.952;2022-10-18T08:04:12;5.83;;;4.00;;
9106;SDS011;4589;48.690;8.952;2022-10-18T08:06:38;5.90;;;4.33;;
9106;SDS011;4589;48.690;8.952;2022-10-18T08:09:04;4.70;;;3.83;;
9106;SDS011;4589;48.690;8.952;2022-10-18T08:11:31;5.57;;;3.50;;
9106;SDS011;4589;48.690;8.952;2022-10-18T08:13:57;5.67;;;4.30;;
9106;SDS011;4589;48.690;8.952;2022-10-18T08:16:25;4.17;;;3.63;;
9106;SDS011;4589;48.690;8.952;2022-10-18T08:18:51;4.13;;;3.60;;
9106;SDS011;4589;48.690;8.952;2022-10-18T08:21:18;4.13;;;3.60;;
9106;SDS011;4589;48.690;8.952;2022-10-18T08:23:44;5.20;;;3.60;;
9106;SDS011;4589;48.690;8.952;2022-10-18T08:26:12;10.20;;;3.60;;
9106;SDS011;4589;48.690;8.952;2022-10-18T08:28:38;7.47;;;3.67;;
9106;SDS011;4589;48.690;8.952;2022-10-18T08:31:06;6.47;;;3.77;;
9106;SDS011;4589;48.690;8.952;2022-10-18T08:33:32;7.83;;;4.67;;
9106;SDS011;4589;48.690;8.952;2022-10-18T08:36:00;4.80;;;3.20;;
9106;SDS011;4589;48.690;8.952;2022-10-18T08:38:29;5.07;;;3.63;;
9106;SDS011;4589;48.690;8.952;2022-10-18T08:40:57;4.30;;;3.60;;
9106;SDS011;4589;48.690;8.952;2022-10-18T08:43:46;3.07;;;2.83;;
9106;SDS011;4589;48.690;8.952;2022-10-18T08:46:38;5.70;;;3.20;;
9106;SDS011;4589;48.690;8.952;2022-10-18T08:49:10;5.30;;;3.60;;
9106;SDS011;4589;48.690;8.952;2022-10-18T08:52:12;6.27;;;4.00;;
9106;SDS011;4589;48.690;8.952;2022-10-18T08:54:48;6.57;;;3.63;;
9106;SDS011;4589;48.690;8.952;2022-10-18T08:57:19;11.43;;;3.17;;
9106;SDS011;4589;48.690;8.952;2022-10-18T08:59:46;7.30;;;3.47;;
9106;SDS011;4589;48.690;8.952;2022-10-18T09:04:46;3.57;;;2.97;;
9106;SDS011;4589;48.690;8.952;2022-10-18T09:09:57;3.97;;;2.90;;
9106;SDS011;4589;48.690;8.952;2022-10-18T09:20:33;4.70;;;3.37;;
9106;SDS011;4589;48.690;8.952;2022-10-18T09:23:29;8.50;;;3.57;;
9106;SDS011;4589;48.690;8.952;2022-10-18T09:31:51;6.40;;;3.40;;
9106;SDS011;4589;48.690;8.952;2022-10-18T09:37:13;4.77;;;2.83;;
9106;SDS011;4589;48.690;8.952;2022-10-18T09:39:42;7.50;;;3.47;;
9106;SDS011;4589;48.690;8.952;2022-10-18T09:42:30;5.93;;;3.00;;
9106;SDS011;4589;48.690;8.952;2022-10-18T09:45:21;3.07;;;2.77;;
9106;SDS011;4589;48.690;8.952;2022-10-18T09:47:56;10.47;;;3.60;;
9106;SDS011;4589;48.690;8.952;2022-10-18T09:58:19;5.93;;;3.03;;
9106;SDS011;4589;48.690;8.952;2022-10-18T10:00:47;5.83;;;3.60;;
9106;SDS011;4589;48.690;8.952;2022-10-18T10:03:14;2.97;;;2.67;;
9106;SDS011;4589;48.690;8.952;2022-10-18T10:05:40;6.53;;;2.93;;
9106;SDS011;4589;48.690;8.952;2022-10-18T10:08:07;3.60;;;3.20;;
9106;SDS011;4589;48.690;8.952;2022-10-18T10:10:32;3.10;;;2.80;;
9106;SDS011;4589;48.690;8.952;2022-10-18T10:13:06;9.00;;;2.93;;
9106;SDS011;4589;48.690;8.952;2022-10-18T10:15:38;6.30;;;2.83;;
9106;SDS011;4589;48.690;8.952;2022-10-18T10:18:13;3.73;;;3.00;;
9106;SDS011;4589;48.690;8.952;2022-10-18T10:25:43;8.57;;;2.53;;
9106;SDS011;4589;48.690;8.952;2022-10-18T10:28:19;4.50;;;2.90;;
9106;SDS011;4589;48.690;8.952;2022-10-18T10:33:59;3.53;;;2.47;;
9106;SDS011;4589;48.690;8.952;2022-10-18T10:36:27;8.97;;;3.03;;
9106;SDS011;4589;48.690;8.952;2022-10-18T10:39:15;3.10;;;2.60;;
9106;SDS011;4589;48.690;8.952;2022-10-18T10:41:42;6.93;;;3.17;;
9106;SDS011;4589;48.690;8.952;2022-10-18T10:44:19;4.90;;;2.97;;
9106;SDS011;4589;48.690;8.952;2022-10-18T10:46:55;3.70;;;2.83;;
9106;SDS011;4589;48.690;8.952;2022-10-18T10:49:26;5.00;;;2.87;;
9106;SDS011;4589;48.690;8.952;2022-10-18T10:52:06;5.80;;;3.40;;
9106;SDS011;4589;48.690;8.952;2022-10-18T10:54:42;3.00;;;2.80;;
9106;SDS011;4589;48.690;8.952;2022-10-18T10:59:41;6.27;;;2.93;;
9106;SDS011;4589;48.690;8.952;2022-10-18T11:04:39;2.80;;;2.60;;
9106;SDS011;4589;48.690;8.952;2022-10-18T11:10:05;3.60;;;2.50;;
9106;SDS011;4589;48.690;8.952;2022-10-18T11:12:44;4.87;;;2.77;;
9106;SDS011;4589;48.690;8.952;2022-10-18T11:23:01;2.87;;;2.00;;
9106;SDS011;4589;48.690;8.952;2022-10-18T11:33:44;5.30;;;1.70;;
9106;SDS011;4589;48.690;8.952;2022-10-18T11:42:01;5.63;;;2.33;;
9106;SDS011;4589;48.690;8.952;2022-10-18T11:44:40;8.10;;;2.10;;
9106;SDS011;4589;48.690;8.952;2022-10-18T11:52:55;3.33;;;2.00;;
9106;SDS011;4589;48.690;8.952;2022-10-18T12:00:58;3.20;;;1.90;;
9106;SDS011;4589;48.690;8.952;2022-10-18T12:06:39;3.10;;;2.07;;
9106;SDS011;4589;48.690;8.952;2022-10-18T12:09:10;5.67;;;1.87;;
9106;SDS011;4589;48.690;8.952;2022-10-18T12:11:45;1.90;;;1.80;;
9106;SDS011;4589;48.690;8.952;2022-10-18T12:14:21;2.80;;;1.57;;
9106;SDS011;4589;48.690;8.952;2022-10-18T12:16:54;4.30;;;1.90;;
9106;SDS011;4589;48.690;8.952;2022-10-18T12:19:26;1.90;;;1.80;;
9106;SDS011;4589;48.690;8.952;2022-10-18T12:21:55;4.13;;;2.00;;
9106;SDS011;4589;48.690;8.952;2022-10-18T12:24:24;3.00;;;1.60;;
9106;SDS011;4589;48.690;8.952;2022-10-18T12:26:56;3.47;;;2.03;;
9106;SDS011;4589;48.690;8.952;2022-10-18T12:31:58;5.40;;;2.27;;
9106;SDS011;4589;48.690;8.952;2022-10-18T12:34:34;10.23;;;2.10;;
9106;SDS011;4589;48.690;8.952;2022-10-18T12:42:26;4.33;;;2.03;;
9106;SDS011;4589;48.690;8.952;2022-10-18T12:45:04;4.83;;;1.50;;
9106;SDS011;4589;48.690;8.952;2022-10-18T12:47:43;4.30;;;2.00;;
9106;SDS011;4589;48.690;8.952;2022-10-18T12:50:24;2.77;;;1.80;;
9106;SDS011;4589;48.690;8.952;2022-10-18T12:55:36;10.50;;;2.40;;
9106;SDS011;4589;48.690;8.952;2022-10-18T12:58:10;5.77;;;1.80;;
9106;SDS011;4589;48.690;8.952;2022-10-18T13:19:22;3.00;;;1.90;;
9106;SDS011;4589;48.690;8.952;2022-10-18T13:25:14;2.80;;;1.90;;
9106;SDS011;4589;48.690;8.952;2022-10-18T13:28:01;9.90;;;2.27;;
9106;SDS011;4589;48.690;8.952;2022-10-18T13:36:04;3.03;;;1.90;;
9106;SDS011;4589;48.690;8.952;2022-10-18T13:41:23;6.20;;;1.70;;
9106;SDS011;4589;48.690;8.952;2022-10-18T13:57:27;1.87;;;1.77;;
9106;SDS011;4589;48.690;8.952;2022-10-18T14:00:29;5.13;;;2.00;;
9106;SDS011;4589;48.690;8.952;2022-10-18T14:06:34;3.40;;;2.20;;
9106;SDS011;4589;48.690;8.952;2022-10-18T14:09:15;2.10;;;1.80;;
9106;SDS011;4589;48.690;8.952;2022-10-18T14:11:51;3.37;;;2.37;;
9106;SDS011;4589;48.690;8.952;2022-10-18T14:14:26;8.70;;;2.00;;
9106;SDS011;4589;48.690;8.952;2022-10-18T14:17:11;2.17;;;1.97;;
9106;SDS011;4589;48.690;8.952;2022-10-18T14:20:12;4.63;;;1.83;;
9106;SDS011;4589;48.690;8.952;2022-10-18T14:22:52;3.73;;;2.20;;
9106;SDS011;4589;48.690;8.952;2022-10-18T14:25:30;3.17;;;1.83;;
9106;SDS011;4589;48.690;8.952;2022-10-18T14:30:34;4.53;;;3.00;;
9106;SDS011;4589;48.690;8.952;2022-10-18T14:33:00;5.70;;;2.10;;
9106;SDS011;4589;48.690;8.952;2022-10-18T14:35:26;3.67;;;2.23;;
9106;SDS011;4589;48.690;8.952;2022-10-18T14:37:55;8.20;;;2.60;;
9106;SDS011;4589;48.690;8.952;2022-10-18T14:40:29;7.73;;;2.30;;
9106;SDS011;4589;48.690;8.952;2022-10-18T14:43:10;6.07;;;2.80;;
9106;SDS011;4589;48.690;8.952;2022-10-18T14:45:37;4.63;;;2.30;;
9106;SDS011;4589;48.690;8.952;2022-10-18T14:48:04;3.87;;;2.47;;
9106;SDS011;4589;48.690;8.952;2022-10-18T14:50:42;3.70;;;2.17;;
9106;SDS011;4589;48.690;8.952;2022-10-18T14:53:12;5.97;;;2.60;;
9106;SDS011;4589;48.690;8.952;2022-10-18T14:55:42;2.40;;;2.20;;
9106;SDS011;4589;48.690;8.952;2022-10-18T14:58:12;6.03;;;2.03;;
9106;SDS011;4589;48.690;8.952;2022-10-18T15:00:39;2.70;;;2.13;;
9106;SDS011;4589;48.690;8.952;2022-10-18T15:03:05;6.83;;;2.03;;
9106;SDS011;4589;48.690;8.952;2022-10-18T15:05:36;3.67;;;2.57;;
9106;SDS011;4589;48.690;8.952;2022-10-18T15:08:15;4.73;;;2.27;;
9106;SDS011;4589;48.690;8.952;2022-10-18T15:10:40;3.70;;;2.10;;
9106;SDS011;4589;48.690;8.952;2022-10-18T15:13:06;4.00;;;2.23;;
9106;SDS011;4589;48.690;8.952;2022-10-18T15:15:32;7.10;;;2.27;;
9106;SDS011;4589;48.690;8.952;2022-10-18T15:17:59;8.40;;;2.70;;
9106;SDS011;4589;48.690;8.952;2022-10-18T15:20:29;3.93;;;2.43;;
9106;SDS011;4589;48.690;8.952;2022-10-18T15:26:00;4.93;;;2.80;;
9106;SDS011;4589;48.690;8.952;2022-10-18T15:28:41;3.80;;;2.47;;
9106;SDS011;4589;48.690;8.952;2022-10-18T15:31:21;4.53;;;3.03;;
9106;SDS011;4589;48.690;8.952;2022-10-18T15:33:53;3.97;;;3.00;;
9106;SDS011;4589;48.690;8.952;2022-10-18T15:36:37;3.50;;;3.20;;
9106;SDS011;4589;48.690;8.952;2022-10-18T15:41:54;3.70;;;2.80;;
9106;SDS011;4589;48.690;8.952;2022-10-18T15:46:48;3.63;;;2.73;;
9106;SDS011;4589;48.690;8.952;2022-10-18T15:51:49;4.67;;;4.10;;
9106;SDS011;4589;48.690;8.952;2022-10-18T15:54:35;3.10;;;2.80;;
9106;SDS011;4589;48.690;8.952;2022-10-18T15:57:07;2.83;;;2.63;;
9106;SDS011;4589;48.690;8.952;2022-10-18T15:59:34;5.23;;;3.50;;
9106;SDS011;4589;48.690;8.952;2022-10-18T16:02:00;4.20;;;2.90;;
9106;SDS011;4589;48.690;8.952;2022-10-18T16:04:26;3.40;;;3.10;;
9106;SDS011;4589;48.690;8.952;2022-10-18T16:06:54;9.37;;;3.27;;
9106;SDS011;4589;48.690;8.952;2022-10-18T16:09:22;6.80;;;3.43;;
9106;SDS011;4589;48.690;8.952;2022-10-18T16:11:49;4.60;;;3.10;;
9106;SDS011;4589;48.690;8.952;2022-10-18T16:14:16;4.17;;;3.77;;
9106;SDS011;4589;48.690;8.952;2022-10-18T16:16:42;11.63;;;3.60;;
9106;SDS011;4589;48.690;8.952;2022-10-18T16:19:15;6.60;;;3.83;;
9106;SDS011;4589;48.690;8.952;2022-10-18T16:21:46;5.00;;;3.27;;
9106;SDS011;4589;48.690;8.952;2022-10-18T16:24:12;5.53;;;3.73;;
9106;SDS011;4589;48.690;8.952;2022-10-18T16:26:38;3.80;;;3.10;;
9106;SDS011;4589;48.690;8.952;2022-10-18T16:29:04;3.60;;;3.30;;
9106;SDS011;4589;48.690;8.952;2022-10-18T16:31:31;5.70;;;4.17;;
9106;SDS011;4589;48.690;8.952;2022-10-18T16:33:57;6.17;;;4.70;;
9106;SDS011;4589;48.690;8.952;2022-10-18T16:36:24;6.00;;;3.90;;
9106;SDS011;4589;48.690;8.952;2022-10-18T16:38:53;4.93;;;4.20;;
9106;SDS011;4589;48.690;8.952;2022-10-18T16:41:19;6.73;;;4.00;;
9106;SDS011;4589;48.690;8.952;2022-10-18T16:43:46;10.13;;;4.80;;
9106;SDS011;4589;48.690;8.952;2022-10-18T16:46:25;8.37;;;4.13;;
9106;SDS011;4589;48.690;8.952;2022-10-18T16:48:52;5.07;;;4.60;;
9106;SDS011;4589;48.690;8.952;2022-10-18T16:51:18;6.40;;;5.17;;
9106;SDS011;4589;48.690;8.952;2022-10-18T16:53:44;10.23;;;5.10;;
9106;SDS011;4589;48.690;8.952;2022-10-18T16:56:17;6.83;;;5.07;;
9106;SDS011;4589;48.690;8.952;2022-10-18T16:58:46;6.70;;;4.80;;
9106;SDS011;4589;48.690;8.952;2022-10-18T17:01:12;7.33;;;4.93;;
9106;SDS011;4589;48.690;8.952;2022-10-18T17:03:40;11.17;;;5.00;;
9106;SDS011;4589;48.690;8.952;2022-10-18T17:06:08;6.27;;;5.13;;
9106;SDS011;4589;48.690;8.952;2022-10-18T17:08:40;6.20;;;4.90;;
9106;SDS011;4589;48.690;8.952;2022-10-18T17:11:08;7.73;;;5.07;;
9106;SDS011;4589;48.690;8.952;2022-10-18T17:13:34;10.57;;;6.00;;
9106;SDS011;4589;48.690;8.952;2022-10-18T17:16:00;8.00;;;5.90;;
9106;SDS011;4589;48.690;8.952;2022-10-18T17:18:29;6.10;;;5.17;;
9106;SDS011;4589;48.690;8.952;2022-10-18T17:20:56;9.20;;;5.50;;
9106;SDS011;4589;48.690;8.952;2022-10-18T17:23:24;7.10;;;5.00;;
9106;SDS011;4589;48.690;8.952;2022-10-18T17:25:50;8.93;;;6.23;;
9106;SDS011;4589;48.690;8.952;2022-10-18T17:28:17;10.77;;;6.80;;
9106;SDS011;4589;48.690;8.952;2022-10-18T17:30:44;7.90;;;7.10;;
9106;SDS011;4589;48.690;8.952;2022-10-18T17:33:10;11.80;;;7.33;;
9106;SDS011;4589;48.690;8.952;2022-10-18T17:35:37;8.70;;;6.30;;
9106;SDS011;4589;48.690;8.952;2022-10-18T17:38:03;6.63;;;5.90;;
9106;SDS011;4589;48.690;8.952;2022-10-18T17:40:29;9.10;;;6.93;;
9106;SDS011;4589;48.690;8.952;2022-10-18T17:42:56;9.37;;;6.53;;
9106;SDS011;4589;48.690;8.952;2022-10-18T17:45:22;8.07;;;5.97;;
9106;SDS011;4589;48.690;8.952;2022-10-18T17:47:48;8.00;;;6.50;;
9106;SDS011;4589;48.690;8.952;2022-10-18T17:50:14;8.60;;;7.63;;
9106;SDS011;4589;48.690;8.952;2022-10-18T17:52:41;11.87;;;8.00;;
9106;SDS011;4589;48.690;8.952;2022-10-18T17:55:07;8.90;;;7.87;;
9106;SDS011;4589;48.690;8.952;2022-10-18T17:57:33;8.50;;;7.70;;
9106;SDS011;4589;48.690;8.952;2022-10-18T17:59:59;11.35;;;8.60;;
9106;SDS011;4589;48.690;8.952;2022-10-18T18:02:26;10.23;;;8.13;;
9106;SDS011;4589;48.690;8.952;2022-10-18T18:04:53;8.60;;;7.13;;
9106;SDS011;4589;48.690;8.952;2022-10-18T18:07:19;8.37;;;7.43;;
9106;SDS011;4589;48.690;8.952;2022-10-18T18:09:45;8.93;;;7.40;;
9106;SDS011;4589;48.690;8.952;2022-10-18T18:12:10;10.43;;;7.60;;
9106;SDS011;4589;48.690;8.952;2022-10-18T18:14:36;7.90;;;6.93;;
9106;SDS011;4589;48.690;8.952;2022-10-18T18:17:02;8.60;;;7.00;;
9106;SDS011;4589;48.690;8.952;2022-10-18T18:19:28;9.27;;;7.37;;
9106;SDS011;4589;48.690;8.952;2022-10-18T18:21:54;7.83;;;6.83;;
9106;SDS011;4589;48.690;8.952;2022-10-18T18:24:22;9.90;;;6.97;;
9106;SDS011;4589;48.690;8.952;2022-10-18T18:26:52;9.47;;;7.47;;